createdAt,value
2023-02-06T00:00:35.551Z,100.00
2023-02-06T00:03:02.359Z,100.00
2023-02-06T00:05:28.879Z,100.00
2023-02-06T00:07:55.391Z,100.00
2023-02-06T00:10:21.934Z,100.00
2023-02-06T00:12:48.671Z,100.00
2023-02-06T00:15:15.466Z,100.00
2023-02-06T00:17:42.056Z,100.00
2023-02-06T00:20:10.400Z,100.00
2023-02-06T00:22:37.279Z,100.00
2023-02-06T00:25:04.192Z,100.00
2023-02-06T00:27:30.959Z,100.00
2023-02-06T00:29:58.545Z,100.00
2023-02-06T00:32:25.224Z,100.00
2023-02-06T00:34:51.688Z,100.00
2023-02-06T00:37:18.180Z,100.00
2023-02-06T00:39:44.655Z,100.00
2023-02-06T00:42:11.095Z,100.00
2023-02-06T00:44:38.030Z,100.00
2023-02-06T00:47:04.479Z,100.00
2023-02-06T00:49:30.944Z,100.00
2023-02-06T00:51:57.404Z,100.00
2023-02-06T00:54:23.851Z,100.00
2023-02-06T00:56:50.322Z,100.00
2023-02-06T00:59:16.835Z,100.00
2023-02-06T01:01:43.284Z,100.00
2023-02-06T01:04:09.764Z,100.00
2023-02-06T01:06:37.738Z,100.00
2023-02-06T01:09:04.566Z,100.00
2023-02-06T01:11:31.078Z,100.00
2023-02-06T01:14:00.564Z,100.00
2023-02-06T01:16:27.687Z,100.00
2023-02-06T01:18:54.763Z,100.00
2023-02-06T01:21:24.766Z,100.00
2023-02-06T01:23:53.432Z,100.00
2023-02-06T01:26:23.268Z,100.00
2023-02-06T01:28:50.623Z,100.00
2023-02-06T01:31:20.851Z,100.00
2023-02-06T01:33:48.453Z,100.00
2023-02-06T01:36:16.152Z,100.00
2023-02-06T01:38:43.047Z,100.00
2023-02-06T01:41:11.108Z,100.00
2023-02-06T01:43:40.575Z,100.00
2023-02-06T01:46:07.692Z,100.00
2023-02-06T01:48:38.895Z,100.00
2023-02-06T01:51:08.790Z,100.00
2023-02-06T01:53:35.976Z,100.00
2023-02-06T01:56:06.375Z,100.00
2023-02-06T01:58:37.483Z,100.00
2023-02-06T02:01:06.085Z,100.00
2023-02-06T02:03:36.830Z,100.00
2023-02-06T02:06:10.109Z,100.00
2023-02-06T02:08:42.908Z,100.00
2023-02-06T02:11:13.980Z,100.00
2023-02-06T02:13:40.511Z,100.00
2023-02-06T02:16:25.663Z,100.00
2023-02-06T02:19:11.575Z,100.00
2023-02-06T02:22:07.448Z,100.00
2023-02-06T02:24:55.720Z,100.00
2023-02-06T02:27:44.008Z,100.00
2023-02-06T02:30:31.460Z,100.00
2023-02-06T02:33:11.482Z,100.00
2023-02-06T02:35:59.578Z,100.00
2023-02-06T02:38:42.893Z,100.00
2023-02-06T02:41:18.963Z,100.00
2023-02-06T02:43:53.889Z,100.00
2023-02-06T02:46:27.856Z,100.00
2023-02-06T02:49:01.003Z,100.00
2023-02-06T02:51:27.571Z,100.00
2023-02-06T02:53:57.555Z,100.00
2023-02-06T02:56:25.916Z,100.00
2023-02-06T02:58:59.230Z,100.00
2023-02-06T03:01:35.325Z,100.00
2023-02-06T03:04:10.088Z,100.00
2023-02-06T03:06:48.610Z,100.00
2023-02-06T03:09:35.929Z,100.00
2023-02-06T03:12:41.297Z,100.00
2023-02-06T03:15:22.337Z,100.00
2023-02-06T03:18:06.916Z,100.00
2023-02-06T03:20:34.917Z,100.00
2023-02-06T03:23:04.049Z,100.00
2023-02-06T03:25:36.236Z,100.00
2023-02-06T03:28:10.707Z,100.00
2023-02-06T03:30:39.931Z,100.00
2023-02-06T03:33:10.251Z,100.00
2023-02-06T03:35:38.691Z,100.00
2023-02-06T03:38:07.378Z,100.00
2023-02-06T03:40:34.952Z,100.00
2023-02-06T03:43:03.916Z,100.00
2023-02-06T03:45:44.105Z,100.00
2023-02-06T03:48:19.411Z,100.00
2023-02-06T03:50:50.085Z,100.00
2023-02-06T03:53:18.798Z,100.00
2023-02-06T03:55:47.237Z,100.00
2023-02-06T03:58:14.638Z,100.00
2023-02-06T04:00:44.349Z,100.00
2023-02-06T04:03:12.931Z,100.00
2023-02-06T04:05:40.227Z,100.00
2023-02-06T04:08:06.965Z,100.00
2023-02-06T04:10:33.737Z,100.00
2023-02-06T04:13:00.232Z,100.00
2023-02-06T04:15:26.657Z,100.00
2023-02-06T04:18:00.319Z,100.00
2023-02-06T04:20:27.645Z,100.00
2023-02-06T04:22:54.235Z,100.00
2023-02-06T04:25:20.693Z,100.00
2023-02-06T04:27:47.244Z,100.00
2023-02-06T04:30:15.436Z,100.00
2023-02-06T04:32:41.936Z,100.00
2023-02-06T04:35:08.576Z,100.00
2023-02-06T04:37:35.084Z,100.00
2023-02-06T04:40:01.588Z,100.00
2023-02-06T04:42:28.044Z,100.00
2023-02-06T04:44:54.531Z,100.00
2023-02-06T04:47:21.045Z,100.00
2023-02-06T04:49:47.545Z,100.00
2023-02-06T04:52:14.028Z,100.00
2023-02-06T04:54:40.533Z,100.00
2023-02-06T04:57:07.063Z,100.00
2023-02-06T04:59:33.519Z,100.00
2023-02-06T05:02:00.045Z,100.00
2023-02-06T05:04:26.656Z,100.00
2023-02-06T05:06:53.100Z,100.00
2023-02-06T05:09:19.522Z,100.00
2023-02-06T05:11:46.011Z,100.00
2023-02-06T05:14:12.461Z,100.00
2023-02-06T05:16:39.022Z,100.00
2023-02-06T05:19:05.465Z,100.00
2023-02-06T05:21:31.938Z,100.00
2023-02-06T05:23:58.403Z,100.00
2023-02-06T05:26:24.936Z,100.00
2023-02-06T05:28:51.623Z,100.00
2023-02-06T05:31:20.024Z,100.00
2023-02-06T05:33:51.777Z,100.00
2023-02-06T05:36:19.558Z,100.00
2023-02-06T05:38:46.867Z,100.00
2023-02-06T05:41:13.360Z,100.00
2023-02-06T05:43:39.838Z,100.00
2023-02-06T05:46:06.366Z,100.00
2023-02-06T05:48:34.769Z,100.00
2023-02-06T05:51:01.905Z,100.00
2023-02-06T05:53:28.433Z,100.00
2023-02-06T05:55:55.499Z,100.00
2023-02-06T05:58:21.992Z,100.00
2023-02-06T06:00:48.425Z,100.00
2023-02-06T06:03:14.889Z,100.00
2023-02-06T06:05:41.347Z,100.00
2023-02-06T06:08:07.800Z,100.00
2023-02-06T06:10:34.463Z,100.00
2023-02-06T06:13:00.976Z,100.00
2023-02-06T06:15:27.418Z,100.00
2023-02-06T06:17:53.874Z,100.00
2023-02-06T06:20:20.375Z,100.00
2023-02-06T06:22:46.848Z,100.00
2023-02-06T06:25:13.302Z,100.00
2023-02-06T06:27:39.937Z,100.00
2023-02-06T06:30:07.001Z,100.00
2023-02-06T06:32:33.449Z,100.00
2023-02-06T06:34:59.889Z,100.00
2023-02-06T06:37:26.365Z,100.00
2023-02-06T06:39:52.830Z,100.00
2023-02-06T06:42:19.253Z,100.00
2023-02-06T06:44:45.695Z,100.00
2023-02-06T06:47:12.154Z,100.00
2023-02-06T06:49:39.035Z,100.00
2023-02-06T06:52:08.845Z,100.00
2023-02-06T06:54:40.009Z,100.00
2023-02-06T06:57:06.905Z,100.00
2023-02-06T06:59:33.360Z,100.00
2023-02-06T07:01:59.818Z,100.00
2023-02-06T07:04:30.204Z,100.00
2023-02-06T07:06:56.632Z,100.00
2023-02-06T07:09:23.377Z,100.00
2023-02-06T07:11:49.823Z,100.00
2023-02-06T07:14:17.038Z,100.00
2023-02-06T07:16:43.575Z,100.00
2023-02-06T07:19:10.197Z,100.00
2023-02-06T07:21:36.677Z,100.00
2023-02-06T07:24:04.586Z,100.00
2023-02-06T07:26:31.433Z,100.00
2023-02-06T07:28:57.874Z,100.00
2023-02-06T07:31:24.373Z,100.00
2023-02-06T07:33:50.846Z,100.00
2023-02-06T07:36:18.445Z,100.00
2023-02-06T07:38:45.101Z,100.00
2023-02-06T07:41:12.751Z,100.00
2023-02-06T07:43:39.482Z,100.00
2023-02-06T07:46:06.384Z,100.00
2023-02-06T07:48:33.133Z,100.00
2023-02-06T07:51:08.316Z,100.00
2023-02-06T07:53:35.718Z,100.00
2023-02-06T07:56:02.366Z,100.00
2023-02-06T07:58:28.956Z,100.00
2023-02-06T08:00:55.987Z,100.00
2023-02-06T08:03:22.444Z,100.00
2023-02-06T08:05:49.017Z,100.00
2023-02-06T08:08:15.524Z,100.00
2023-02-06T08:10:42.123Z,100.00
2023-02-06T08:13:08.674Z,100.00
2023-02-06T08:15:35.454Z,100.00
2023-02-06T08:18:02.153Z,100.00
2023-02-06T08:20:28.677Z,100.00
2023-02-06T08:22:55.278Z,100.00
2023-02-06T08:25:21.756Z,100.00
2023-02-06T08:27:52.572Z,100.00
2023-02-06T08:30:19.167Z,100.00
2023-02-06T08:32:45.619Z,100.00
2023-02-06T08:35:12.151Z,100.00
2023-02-06T08:37:38.616Z,100.00
2023-02-06T08:40:05.499Z,100.00
2023-02-06T08:42:31.940Z,100.00
2023-02-06T08:44:58.580Z,100.00
2023-02-06T08:47:25.100Z,100.00
2023-02-06T08:49:51.683Z,100.00
2023-02-06T08:52:18.192Z,100.00
2023-02-06T08:54:44.767Z,100.00
2023-02-06T08:57:12.812Z,100.00
2023-02-06T08:59:39.525Z,100.00
2023-02-06T09:02:08.249Z,100.00
2023-02-06T09:04:37.605Z,100.00
2023-02-06T09:07:04.084Z,100.00
2023-02-06T09:09:30.577Z,100.00
2023-02-06T09:12:02.113Z,100.00
2023-02-06T09:14:29.371Z,100.00
2023-02-06T09:16:58.082Z,100.00
2023-02-06T09:19:25.253Z,100.00
2023-02-06T09:21:51.742Z,100.00
2023-02-06T09:24:18.464Z,100.00
2023-02-06T09:26:58.918Z,100.00
2023-02-06T09:29:28.965Z,100.00
2023-02-06T09:31:57.318Z,100.00
2023-02-06T09:34:25.785Z,100.00
2023-02-06T09:36:54.455Z,100.00
2023-02-06T09:39:21.206Z,100.00
2023-02-06T09:41:52.225Z,100.00
2023-02-06T09:44:25.501Z,100.00
2023-02-06T09:47:28.478Z,100.00
2023-02-06T09:49:59.601Z,100.00
2023-02-06T09:52:47.334Z,100.00
2023-02-06T09:55:25.803Z,100.00
2023-02-06T09:58:22.474Z,100.00
2023-02-06T10:00:54.771Z,99.09
2023-02-06T10:03:46.109Z,100.00
2023-02-06T10:06:30.009Z,99.72
2023-02-06T10:09:16.140Z,98.30
2023-02-06T10:11:48.260Z,97.17
2023-02-06T10:14:30.777Z,95.75
2023-02-06T10:17:01.236Z,96.57
2023-02-06T10:19:30.569Z,97.03
2023-02-06T10:22:21.052Z,96.67
2023-02-06T10:25:21.143Z,95.63
2023-02-06T10:27:55.084Z,90.23
2023-02-06T10:30:33.089Z,76.81
2023-02-06T10:33:24.028Z,77.58
2023-02-06T10:36:02.821Z,76.92
2023-02-06T10:39:07.683Z,82.32
2023-02-06T10:41:45.756Z,86.08
2023-02-06T10:44:25.275Z,85.48
2023-02-06T10:46:54.441Z,87.84
2023-02-06T10:49:36.709Z,85.19
2023-02-06T10:52:18.137Z,83.12
2023-02-06T10:54:51.987Z,82.46
2023-02-06T10:57:22.048Z,79.76
2023-02-06T10:59:53.955Z,74.37
2023-02-06T11:03:06.783Z,77.07
2023-02-06T11:05:34.256Z,78.12
2023-02-06T11:08:25.200Z,78.41
2023-02-06T11:10:52.404Z,72.96
2023-02-06T11:13:26.841Z,76.38
2023-02-06T11:16:10.424Z,78.83
2023-02-06T11:18:40.338Z,78.90
2023-02-06T11:21:12.760Z,78.59
2023-02-06T11:23:40.226Z,73.01
2023-02-06T11:26:10.806Z,68.68
2023-02-06T11:28:52.335Z,66.50
2023-02-06T11:31:21.328Z,68.99
2023-02-06T11:33:51.750Z,67.11
2023-02-06T11:36:32.440Z,59.92
2023-02-06T11:39:02.605Z,56.91
2023-02-06T11:41:30.188Z,53.64
2023-02-06T11:44:02.646Z,54.12
2023-02-06T11:46:38.791Z,51.98
2023-02-06T11:49:24.512Z,53.86
2023-02-06T11:51:54.494Z,51.50
2023-02-06T11:54:23.149Z,53.20
2023-02-06T11:56:58.576Z,53.46
2023-02-06T11:59:27.018Z,62.02
2023-02-06T12:01:53.686Z,58.43
2023-02-06T12:04:34.648Z,53.50
2023-02-06T12:07:03.018Z,57.35
2023-02-06T12:09:29.566Z,59.14
2023-02-06T12:12:17.450Z,61.17
2023-02-06T12:14:51.307Z,58.91
2023-02-06T12:17:39.949Z,58.20
2023-02-06T12:20:14.287Z,59.79
2023-02-06T12:22:46.096Z,59.16
2023-02-06T12:25:32.957Z,58.90
2023-02-06T12:28:10.363Z,59.27
2023-02-06T12:30:51.412Z,59.12
2023-02-06T12:33:36.091Z,59.93
2023-02-06T12:36:07.339Z,60.50
2023-02-06T12:38:55.675Z,65.67
2023-02-06T12:41:41.111Z,67.47
2023-02-06T12:44:35.007Z,67.52
2023-02-06T12:47:24.125Z,65.62
2023-02-06T12:49:57.873Z,62.35
2023-02-06T12:52:31.114Z,65.39
2023-02-06T12:55:22.493Z,60.71
2023-02-06T12:57:49.522Z,59.92
2023-02-06T13:00:45.640Z,62.17
2023-02-06T13:03:40.724Z,63.83
2023-02-06T13:06:10.122Z,64.80
2023-02-06T13:08:36.495Z,66.20
2023-02-06T13:11:06.875Z,67.90
2023-02-06T13:13:37.906Z,66.70
2023-02-06T13:16:05.835Z,68.25
2023-02-06T13:18:41.486Z,66.31
2023-02-06T13:21:24.099Z,66.06
2023-02-06T13:24:12.581Z,64.14
2023-02-06T13:26:56.420Z,61.65
2023-02-06T13:29:28.310Z,60.84
2023-02-06T13:32:13.026Z,58.28
2023-02-06T13:34:51.288Z,56.97
2023-02-06T13:37:37.731Z,58.34
2023-02-06T13:40:22.529Z,59.60
2023-02-06T13:43:07.386Z,59.79
2023-02-06T13:45:58.393Z,62.75
2023-02-06T13:48:24.869Z,63.17
2023-02-06T13:51:13.949Z,66.19
2023-02-06T13:54:26.681Z,65.39
2023-02-06T13:57:18.022Z,64.14
2023-02-06T14:00:10.738Z,62.96
2023-02-06T14:02:44.200Z,67.31
2023-02-06T14:05:14.860Z,64.72
2023-02-06T14:08:01.099Z,65.08
2023-02-06T14:11:10.776Z,65.47
2023-02-06T14:14:17.579Z,64.76
2023-02-06T14:17:07.482Z,67.05
2023-02-06T14:19:55.983Z,66.92
2023-02-06T14:22:40.927Z,64.50
2023-02-06T14:25:22.338Z,67.54
2023-02-06T14:28:06.401Z,67.40
2023-02-06T14:30:53.977Z,67.24
2023-02-06T14:33:32.272Z,68.53
2023-02-06T14:36:33.066Z,69.70
2023-02-06T14:39:42.740Z,70.02
2023-02-06T14:42:16.287Z,68.23
2023-02-06T14:44:45.011Z,70.77
2023-02-06T14:47:19.405Z,68.20
2023-02-06T14:49:47.412Z,69.22
2023-02-06T14:52:23.209Z,68.32
2023-02-06T14:54:50.331Z,69.92
2023-02-06T14:57:21.674Z,69.90
2023-02-06T14:59:53.951Z,69.76
2023-02-06T15:02:28.487Z,68.85
2023-02-06T15:04:55.971Z,69.88
2023-02-06T15:07:27.628Z,71.72
2023-02-06T15:10:02.097Z,71.33
2023-02-06T15:12:29.117Z,70.47
2023-02-06T15:15:02.554Z,69.74
2023-02-06T15:17:30.384Z,71.44
2023-02-06T15:19:57.198Z,71.48
2023-02-06T15:22:28.247Z,72.31
2023-02-06T15:25:28.519Z,73.38
2023-02-06T15:28:07.126Z,72.56
2023-02-06T15:30:35.799Z,73.19
2023-02-06T15:33:03.320Z,72.49
2023-02-06T15:35:41.309Z,73.87
2023-02-06T15:38:13.278Z,73.32
2023-02-06T15:40:44.385Z,72.52
2023-02-06T15:43:17.046Z,72.39
2023-02-06T15:45:44.999Z,73.26
2023-02-06T15:48:18.121Z,73.45
2023-02-06T15:51:20.165Z,73.37
2023-02-06T15:53:48.726Z,73.73
2023-02-06T15:56:20.936Z,73.42
2023-02-06T15:58:49.491Z,72.81
2023-02-06T16:01:20.082Z,72.25
2023-02-06T16:03:52.006Z,74.26
2023-02-06T16:06:18.625Z,74.59
2023-02-06T16:08:57.081Z,73.79
2023-02-06T16:11:50.816Z,74.87
2023-02-06T16:14:33.796Z,73.86
2023-02-06T16:17:05.793Z,74.54
2023-02-06T16:19:56.332Z,75.80
2023-02-06T16:22:37.991Z,77.05
2023-02-06T16:25:29.939Z,77.20
2023-02-06T16:27:56.871Z,75.14
2023-02-06T16:30:32.927Z,77.93
2023-02-06T16:33:09.652Z,78.22
2023-02-06T16:35:36.105Z,77.92
2023-02-06T16:38:02.619Z,78.64
2023-02-06T16:40:29.134Z,78.59
2023-02-06T16:42:55.770Z,80.24
2023-02-06T16:45:26.257Z,80.40
2023-02-06T16:47:53.974Z,80.52
2023-02-06T16:50:21.678Z,81.63
2023-02-06T16:52:54.412Z,81.57
2023-02-06T16:55:25.628Z,83.27
2023-02-06T16:57:59.140Z,81.88
2023-02-06T17:00:31.600Z,82.95
2023-02-06T17:02:58.750Z,80.18
2023-02-06T17:05:27.209Z,81.78
2023-02-06T17:07:54.871Z,83.78
2023-02-06T17:10:24.748Z,83.42
2023-02-06T17:12:51.419Z,82.92
2023-02-06T17:15:19.073Z,84.16
2023-02-06T17:17:45.540Z,83.83
2023-02-06T17:20:30.129Z,83.85
2023-02-06T17:22:56.757Z,84.53
2023-02-06T17:25:23.185Z,83.72
2023-02-06T17:27:49.643Z,84.27
2023-02-06T17:30:18.660Z,85.38
2023-02-06T17:32:45.212Z,85.87
2023-02-06T17:35:12.145Z,85.55
2023-02-06T17:37:38.727Z,86.38
2023-02-06T17:40:06.528Z,86.97
2023-02-06T17:42:33.649Z,88.17
2023-02-06T17:45:00.173Z,87.32
2023-02-06T17:47:26.718Z,89.03
2023-02-06T17:49:53.214Z,90.45
2023-02-06T17:52:19.716Z,88.47
2023-02-06T17:54:46.249Z,88.03
2023-02-06T17:57:13.600Z,89.36
2023-02-06T17:59:40.170Z,88.25
2023-02-06T18:02:06.763Z,89.49
2023-02-06T18:04:33.312Z,89.21
2023-02-06T18:06:59.758Z,88.99
2023-02-06T18:09:26.183Z,88.88
2023-02-06T18:11:52.700Z,88.19
2023-02-06T18:14:19.125Z,88.80
2023-02-06T18:16:47.003Z,84.26
2023-02-06T18:19:13.670Z,82.10
2023-02-06T18:21:40.087Z,82.83
2023-02-06T18:24:07.318Z,82.31
2023-02-06T18:26:33.757Z,82.66
2023-02-06T18:29:04.073Z,84.27
2023-02-06T18:31:35.477Z,82.45
2023-02-06T18:34:04.779Z,84.38
2023-02-06T18:36:31.178Z,83.28
2023-02-06T18:38:57.744Z,84.57
2023-02-06T18:41:42.785Z,84.74
2023-02-06T18:44:10.929Z,83.84
2023-02-06T18:46:38.051Z,84.61
2023-02-06T18:49:05.506Z,83.35
2023-02-06T18:51:33.122Z,83.20
2023-02-06T18:54:00.190Z,83.42
2023-02-06T18:56:26.919Z,84.08
2023-02-06T18:58:53.422Z,82.15
2023-02-06T19:01:24.897Z,82.67
2023-02-06T19:03:52.729Z,82.70
2023-02-06T19:06:22.632Z,83.36
2023-02-06T19:08:49.739Z,81.97
2023-02-06T19:11:16.732Z,81.87
2023-02-06T19:13:43.450Z,82.38
2023-02-06T19:16:15.770Z,82.25
2023-02-06T19:18:44.955Z,83.36
2023-02-06T19:21:17.584Z,82.04
2023-02-06T19:23:45.653Z,83.70
2023-02-06T19:26:15.064Z,83.22
2023-02-06T19:28:42.292Z,82.04
2023-02-06T19:31:10.430Z,82.38
2023-02-06T19:33:38.428Z,83.03
2023-02-06T19:36:10.137Z,82.77
2023-02-06T19:38:36.621Z,83.83
2023-02-06T19:41:29.848Z,84.00
2023-02-06T19:43:57.793Z,85.46
2023-02-06T19:46:26.443Z,83.69
2023-02-06T19:48:54.066Z,85.85
2023-02-06T19:51:26.554Z,85.25
2023-02-06T19:53:54.491Z,85.08
2023-02-06T19:56:24.230Z,84.23
2023-02-06T19:59:18.826Z,84.22
2023-02-06T20:01:56.308Z,84.85
2023-02-06T20:04:25.472Z,85.91
2023-02-06T20:06:53.770Z,84.78
2023-02-06T20:09:20.880Z,84.47
2023-02-06T20:11:48.950Z,84.46
2023-02-06T20:14:16.369Z,83.78
2023-02-06T20:16:43.718Z,84.90
2023-02-06T20:19:20.321Z,81.60
2023-02-06T20:21:49.875Z,80.50
2023-02-06T20:24:20.994Z,79.16
2023-02-06T20:26:50.008Z,79.48
2023-02-06T20:29:28.918Z,80.02
2023-02-06T20:31:56.124Z,80.25
2023-02-06T20:34:23.541Z,80.94
2023-02-06T20:36:50.857Z,81.47
2023-02-06T20:39:18.230Z,81.76
2023-02-06T20:41:45.788Z,82.32
2023-02-06T20:44:13.561Z,81.94
2023-02-06T20:46:40.362Z,81.59
2023-02-06T20:49:12.081Z,82.07
2023-02-06T20:51:38.534Z,81.62
2023-02-06T20:54:06.443Z,82.37
2023-02-06T20:56:33.299Z,82.17
2023-02-06T20:59:01.111Z,82.71
2023-02-06T21:01:30.563Z,81.58
2023-02-06T21:04:09.046Z,82.13
2023-02-06T21:06:36.996Z,82.15
2023-02-06T21:09:05.287Z,82.27
2023-02-06T21:11:35.287Z,82.72
2023-02-06T21:14:03.803Z,82.84
2023-02-06T21:16:32.218Z,82.68
2023-02-06T21:18:59.776Z,83.19
2023-02-06T21:21:27.264Z,83.35
2023-02-06T21:23:57.115Z,85.14
2023-02-06T21:26:25.021Z,85.13
2023-02-06T21:28:51.918Z,85.67
2023-02-06T21:31:37.225Z,85.48
2023-02-06T21:34:16.403Z,86.28
2023-02-06T21:36:43.686Z,85.72
2023-02-06T21:39:15.164Z,86.25
2023-02-06T21:41:43.438Z,86.74
2023-02-06T21:44:09.968Z,86.28
2023-02-06T21:46:36.908Z,86.18
2023-02-06T21:49:03.816Z,86.91
2023-02-06T21:51:30.640Z,86.19
2023-02-06T21:53:57.142Z,87.82
2023-02-06T21:56:26.276Z,86.74
2023-02-06T21:58:52.961Z,88.00
2023-02-06T22:01:28.819Z,89.22
2023-02-06T22:03:57.213Z,88.90
2023-02-06T22:06:23.706Z,88.84
2023-02-06T22:08:52.588Z,88.34
2023-02-06T22:11:22.600Z,88.15
2023-02-06T22:13:50.101Z,87.99
2023-02-06T22:16:20.412Z,89.46
2023-02-06T22:18:47.225Z,90.07
2023-02-06T22:21:19.959Z,91.08
2023-02-06T22:23:48.289Z,91.17
2023-02-06T22:26:17.474Z,90.99
2023-02-06T22:28:45.082Z,90.71
2023-02-06T22:31:14.794Z,91.38
2023-02-06T22:33:42.006Z,91.36
2023-02-06T22:36:12.124Z,92.41
2023-02-06T22:38:39.193Z,93.66
2023-02-06T22:41:09.983Z,93.67
2023-02-06T22:43:38.290Z,94.29
2023-02-06T22:46:06.291Z,94.01
2023-02-06T22:48:32.930Z,93.91
2023-02-06T22:51:07.471Z,93.61
2023-02-06T22:53:34.040Z,93.79
2023-02-06T22:56:34.802Z,93.88
2023-02-06T22:59:14.902Z,94.07
2023-02-06T23:01:53.644Z,93.46
2023-02-06T23:04:25.357Z,93.52
2023-02-06T23:06:52.876Z,93.20
2023-02-06T23:09:22.737Z,93.79
2023-02-06T23:11:49.709Z,94.10
2023-02-06T23:14:17.011Z,93.49
2023-02-06T23:16:43.763Z,93.31
2023-02-06T23:19:12.115Z,94.02
2023-02-06T23:21:41.198Z,93.56
2023-02-06T23:24:09.620Z,93.02
2023-02-06T23:26:36.919Z,93.69
2023-02-06T23:29:07.628Z,93.80
2023-02-06T23:31:34.683Z,93.81
2023-02-06T23:34:01.690Z,94.22
2023-02-06T23:36:29.108Z,94.58
2023-02-06T23:38:56.089Z,94.78
2023-02-06T23:41:27.957Z,94.32
2023-02-06T23:43:57.242Z,93.60
2023-02-06T23:46:24.380Z,93.13
2023-02-06T23:48:51.425Z,93.86
2023-02-06T23:51:18.782Z,93.44
2023-02-06T23:53:45.248Z,94.14
2023-02-06T23:56:19.762Z,93.81
2023-02-06T23:58:46.622Z,94.18
